createdAt,value
2018-04-11T00:00:16.000Z,99297
2018-04-11T00:02:16.000Z,99297
2018-04-11T00:03:16.000Z,99302
2018-04-11T00:05:16.000Z,99301
2018-04-11T00:07:16.000Z,99301
2018-04-11T00:09:16.000Z,99303
2018-04-11T00:11:16.000Z,99303
2018-04-11T00:13:16.000Z,99297
2018-04-11T00:15:01.000Z,99293
2018-04-11T00:16:01.000Z,99300
2018-04-11T00:17:16.000Z,99302
2018-04-11T00:19:16.000Z,99303
2018-04-11T00:20:16.000Z,99303
2018-04-11T00:22:16.000Z,99297
2018-04-11T00:24:16.000Z,99304
2018-04-11T00:26:16.000Z,99306
2018-04-11T00:27:16.000Z,99306
2018-04-11T00:29:16.000Z,99307
2018-04-11T00:30:16.000Z,99303
2018-04-11T00:32:16.000Z,99304
2018-04-11T00:34:16.000Z,99306
2018-04-11T00:36:16.000Z,99301
2018-04-11T00:38:16.000Z,99306
2018-04-11T00:40:16.000Z,99308
2018-04-11T00:42:16.000Z,99311
2018-04-11T00:44:16.000Z,99308
2018-04-11T00:46:16.000Z,99306
2018-04-11T00:48:01.000Z,99304
2018-04-11T00:49:16.000Z,99304
2018-04-11T00:51:16.000Z,99308
2018-04-11T00:52:16.000Z,99306
2018-04-11T00:54:16.000Z,99310
2018-04-11T00:56:16.000Z,99307
2018-04-11T00:58:16.000Z,99305
2018-04-11T01:00:01.000Z,99303
2018-04-11T01:01:16.000Z,99304
2018-04-11T01:02:16.000Z,99303
2018-04-11T01:04:16.000Z,99303
2018-04-11T01:06:16.000Z,99302
2018-04-11T01:07:16.000Z,99299
2018-04-11T01:08:16.000Z,99300
2018-04-11T01:10:16.000Z,99301
2018-04-11T01:11:16.000Z,99313
2018-04-11T01:13:16.000Z,99315
2018-04-11T01:15:16.000Z,99324
2018-04-11T01:17:16.000Z,99326
2018-04-11T01:19:16.000Z,99327
2018-04-11T01:20:16.000Z,99323
2018-04-11T01:21:16.000Z,99323
2018-04-11T01:23:16.000Z,99316
2018-04-11T01:25:16.000Z,99318
2018-04-11T01:27:16.000Z,99316
2018-04-11T01:29:16.000Z,99312
2018-04-11T01:30:16.000Z,99316
2018-04-11T01:32:01.000Z,99318
2018-04-11T01:33:16.000Z,99319
2018-04-11T01:34:16.000Z,99314
2018-04-11T01:36:16.000Z,99314
2018-04-11T01:38:01.000Z,99317
2018-04-11T01:39:16.000Z,99312
2018-04-11T01:41:16.000Z,99307
2018-04-11T01:42:16.000Z,99309
2018-04-11T01:44:16.000Z,99302
2018-04-11T01:45:16.000Z,99307
2018-04-11T01:47:16.000Z,99301
2018-04-11T01:49:16.000Z,99298
2018-04-11T01:50:16.000Z,99297
2018-04-11T01:51:16.000Z,99293
2018-04-11T01:53:16.000Z,99295
2018-04-11T01:55:16.000Z,99300
2018-04-11T01:57:16.000Z,99297
2018-04-11T01:58:16.000Z,99307
2018-04-11T02:00:16.000Z,99304
2018-04-11T02:02:16.000Z,99310
2018-04-11T02:04:16.000Z,99308
2018-04-11T02:05:16.000Z,99311
2018-04-11T02:07:16.000Z,99308
2018-04-11T02:09:16.000Z,99311
2018-04-11T02:10:16.000Z,99310
2018-04-11T02:12:16.000Z,99307
2018-04-11T02:14:16.000Z,99307
2018-04-11T02:16:16.000Z,99305
2018-04-11T02:18:16.000Z,99305
2018-04-11T02:20:01.000Z,99305
2018-04-11T02:21:16.000Z,99304
2018-04-11T02:23:16.000Z,99307
2018-04-11T02:25:01.000Z,99305
2018-04-11T02:26:16.000Z,99300
2018-04-11T02:27:46.000Z,99295
2018-04-11T02:29:16.000Z,99303
2018-04-11T02:30:16.000Z,99303
2018-04-11T02:32:16.000Z,99295
2018-04-11T02:33:16.000Z,99292
2018-04-11T02:35:16.000Z,99295
2018-04-11T02:37:01.000Z,99292
2018-04-11T02:38:16.000Z,99287
2018-04-11T02:39:16.000Z,99287
2018-04-11T02:41:01.000Z,99295
2018-04-11T02:42:16.000Z,99293
2018-04-11T02:44:16.000Z,99292
2018-04-11T02:46:16.000Z,99287
2018-04-11T02:48:16.000Z,99290
2018-04-11T02:50:16.000Z,99288
2018-04-11T02:52:16.000Z,99287
2018-04-11T02:54:16.000Z,99283
2018-04-11T02:55:16.000Z,99281
2018-04-11T02:57:16.000Z,99278
2018-04-11T02:59:16.000Z,99274
2018-04-11T03:00:16.000Z,99274
2018-04-11T03:02:16.000Z,99268
2018-04-11T03:03:16.000Z,99269
2018-04-11T03:05:16.000Z,99274
2018-04-11T03:07:16.000Z,99283
2018-04-11T03:09:17.000Z,99285
2018-04-11T03:11:17.000Z,99277
2018-04-11T03:13:17.000Z,99272
2018-04-11T03:15:17.000Z,99273
2018-04-11T03:17:01.000Z,99272
2018-04-11T03:18:01.000Z,99275
2018-04-11T03:19:17.000Z,99274
2018-04-11T03:20:17.000Z,99275
2018-04-11T03:22:17.000Z,99278
2018-04-11T03:23:17.000Z,99278
2018-04-11T03:24:17.000Z,99276
2018-04-11T03:26:01.000Z,99279
2018-04-11T03:27:17.000Z,99277
2018-04-11T03:29:17.000Z,99274
2018-04-11T03:31:17.000Z,99277
2018-04-11T03:33:17.000Z,99283
2018-04-11T03:34:17.000Z,99276
2018-04-11T03:36:17.000Z,99272
2018-04-11T03:38:17.000Z,99271
2018-04-11T03:40:17.000Z,99272
2018-04-11T03:41:17.000Z,99273
2018-04-11T03:43:17.000Z,99284
2018-04-11T03:44:17.000Z,99296
2018-04-11T03:46:01.000Z,99299
2018-04-11T03:50:17.000Z,99309
2018-04-11T03:51:47.000Z,99307
2018-04-11T03:53:03.000Z,99310
2018-04-11T03:55:03.000Z,99301
2018-04-11T03:57:03.000Z,99295
2018-04-11T03:58:03.000Z,99296
2018-04-11T04:00:03.000Z,99288
2018-04-11T04:02:03.000Z,99289
2018-04-11T04:04:03.000Z,99288
2018-04-11T04:06:03.000Z,99290
2018-04-11T04:07:03.000Z,99293
2018-04-11T04:08:47.000Z,99314
2018-04-11T04:10:03.000Z,99313
2018-04-11T04:12:02.000Z,99323
2018-04-11T04:14:02.000Z,99319
2018-04-11T04:16:02.000Z,99327
2018-04-11T04:18:02.000Z,99330
2018-04-11T04:20:02.000Z,99332
2018-04-11T04:22:02.000Z,99335
2018-04-11T04:24:02.000Z,99344
2018-04-11T04:25:02.000Z,99342
2018-04-11T04:26:31.000Z,99341
2018-04-11T04:28:02.000Z,99345
2018-04-11T04:30:02.000Z,99349
2018-04-11T04:31:02.000Z,99345
2018-04-11T04:33:02.000Z,99352
2018-04-11T04:34:02.000Z,99349
2018-04-11T04:36:02.000Z,99352
2018-04-11T04:38:02.000Z,99354
2018-04-11T04:40:02.000Z,99353
2018-04-11T04:41:02.000Z,99359
2018-04-11T04:43:02.000Z,99363
2018-04-11T04:45:02.000Z,99360
2018-04-11T04:47:02.000Z,99357
2018-04-11T04:48:02.000Z,99360
2018-04-11T04:50:02.000Z,99354
2018-04-11T04:51:02.000Z,99352
2018-04-11T04:53:02.000Z,99355
2018-04-11T04:54:02.000Z,99359
2018-04-11T04:56:02.000Z,99360
2018-04-11T04:57:02.000Z,99358
2018-04-11T04:59:02.000Z,99351
2018-04-11T05:01:02.000Z,99352
2018-04-11T05:03:02.000Z,99356
2018-04-11T05:05:02.000Z,99354
2018-04-11T05:07:02.000Z,99356
2018-04-11T05:08:02.000Z,99359
2018-04-11T05:09:47.000Z,99356
2018-04-11T05:11:02.000Z,99362
2018-04-11T05:12:47.000Z,99365
2018-04-11T05:14:02.000Z,99372
2018-04-11T05:16:03.000Z,99370
2018-04-11T05:17:03.000Z,99371
2018-04-11T05:19:03.000Z,99374
2018-04-11T05:21:03.000Z,99376
2018-04-11T05:23:03.000Z,99383
2018-04-11T05:24:03.000Z,99374
2018-04-11T05:25:03.000Z,99383
2018-04-11T05:26:03.000Z,99380
2018-04-11T05:28:03.000Z,99379
2018-04-11T05:29:47.000Z,99379
2018-04-11T05:31:03.000Z,99375
2018-04-11T05:33:03.000Z,99376
2018-04-11T05:35:03.000Z,99372
2018-04-11T05:37:03.000Z,99376
2018-04-11T05:39:03.000Z,99384
2018-04-11T05:41:03.000Z,99385
2018-04-11T05:43:03.000Z,99385
2018-04-11T05:45:03.000Z,99379
2018-04-11T05:46:03.000Z,99384
2018-04-11T05:48:03.000Z,99382
2018-04-11T05:50:03.000Z,99396
2018-04-11T05:52:03.000Z,99400
2018-04-11T05:53:03.000Z,99402
2018-04-11T05:55:03.000Z,99401
2018-04-11T05:57:03.000Z,99400
2018-04-11T05:59:03.000Z,99409
2018-04-11T06:00:03.000Z,99407
2018-04-11T06:01:03.000Z,99407
2018-04-11T06:02:47.000Z,99408
2018-04-11T06:04:03.000Z,99406
2018-04-11T06:06:03.000Z,99407
2018-04-11T06:07:03.000Z,99408
2018-04-11T06:08:03.000Z,99407
2018-04-11T06:10:03.000Z,99415
2018-04-11T06:11:47.000Z,99412
2018-04-11T06:13:03.000Z,99415
2018-04-11T06:14:03.000Z,99416
2018-04-11T06:16:03.000Z,99410
2018-04-11T06:17:47.000Z,99412
2018-04-11T06:19:03.000Z,99413
2018-04-11T06:20:02.000Z,99410
2018-04-11T06:22:02.000Z,99412
2018-04-11T06:24:02.000Z,99419
2018-04-11T06:26:02.000Z,99417
2018-04-11T06:27:02.000Z,99419
2018-04-11T06:28:47.000Z,99415
2018-04-11T06:30:02.000Z,99412
2018-04-11T06:31:32.000Z,99413
2018-04-11T06:33:02.000Z,99412
2018-04-11T06:35:02.000Z,99414
2018-04-11T06:36:02.000Z,99411
2018-04-11T06:37:47.000Z,99407
2018-04-11T06:39:02.000Z,99397
2018-04-11T06:41:02.000Z,99398
2018-04-11T06:42:47.000Z,99399
2018-04-11T06:44:02.000Z,99393
2018-04-11T06:46:02.000Z,99393
2018-04-11T06:48:02.000Z,99400
2018-04-11T06:50:02.000Z,99406
2018-04-11T06:52:02.000Z,99412
2018-04-11T06:53:02.000Z,99410
2018-04-11T06:55:02.000Z,99413
2018-04-11T06:57:02.000Z,99406
2018-04-11T06:59:02.000Z,99411
2018-04-11T07:00:02.000Z,99404
2018-04-11T07:02:02.000Z,99410
2018-04-11T07:04:02.000Z,99409
2018-04-11T07:06:02.000Z,99412
2018-04-11T07:08:02.000Z,99410
2018-04-11T07:09:02.000Z,99406
2018-04-11T07:11:02.000Z,99407
2018-04-11T07:12:02.000Z,99407
2018-04-11T07:13:02.000Z,99402
2018-04-11T07:15:02.000Z,99404
2018-04-11T07:17:02.000Z,99408
2018-04-11T07:19:02.000Z,99412
2018-04-11T07:20:47.000Z,99413
2018-04-11T07:22:02.000Z,99408
2018-04-11T07:24:02.000Z,99409
2018-04-11T07:26:02.000Z,99413
2018-04-11T07:28:02.000Z,99409
2018-04-11T07:30:02.000Z,99411
2018-04-11T07:32:02.000Z,99412
2018-04-11T07:34:02.000Z,99411
2018-04-11T07:35:02.000Z,99414
2018-04-11T07:37:02.000Z,99417
2018-04-11T07:38:02.000Z,99414
2018-04-11T07:40:02.000Z,99414
2018-04-11T07:41:47.000Z,99411
2018-04-11T07:43:02.000Z,99413
2018-04-11T07:45:02.000Z,99413
2018-04-11T07:46:47.000Z,99413
2018-04-11T07:49:02.000Z,99413
2018-04-11T07:51:02.000Z,99418
2018-04-11T07:53:02.000Z,99420
2018-04-11T07:54:02.000Z,99417
2018-04-11T07:56:02.000Z,99421
2018-04-11T07:57:47.000Z,99425
2018-04-11T07:59:02.000Z,99423
2018-04-11T08:02:48.000Z,99427
2018-04-11T08:04:48.000Z,99431
2018-04-11T08:05:48.000Z,99429
2018-04-11T08:07:48.000Z,99424
2018-04-11T08:08:48.000Z,99426
2018-04-11T08:10:48.000Z,99429
2018-04-11T08:12:33.000Z,99426
2018-04-11T08:13:48.000Z,99424
2018-04-11T08:14:48.000Z,99424
2018-04-11T08:16:48.000Z,99434
2018-04-11T08:18:48.000Z,99437
2018-04-11T08:20:48.000Z,99439
2018-04-11T08:22:48.000Z,99438
2018-04-11T08:24:48.000Z,99435
2018-04-11T08:26:48.000Z,99433
2018-04-11T08:28:48.000Z,99435
2018-04-11T08:30:48.000Z,99440
2018-04-11T08:32:33.000Z,99434
2018-04-11T08:33:48.000Z,99435
2018-04-11T08:35:48.000Z,99433
2018-04-11T08:37:48.000Z,99439
2018-04-11T08:39:48.000Z,99442
2018-04-11T08:41:48.000Z,99442
2018-04-11T08:42:48.000Z,99439
2018-04-11T08:43:48.000Z,99436
2018-04-11T08:45:48.000Z,99439
2018-04-11T08:46:48.000Z,99441
2018-04-11T08:47:48.000Z,99433
2018-04-11T08:49:48.000Z,99432
2018-04-11T08:51:48.000Z,99433
2018-04-11T08:53:33.000Z,99428
2018-04-11T08:55:33.000Z,99429
2018-04-11T08:56:48.000Z,99435
2018-04-11T08:57:48.000Z,99431
2018-04-11T08:59:48.000Z,99431
2018-04-11T09:01:33.000Z,99429
2018-04-11T09:02:48.000Z,99435
2018-04-11T09:03:48.000Z,99426
2018-04-11T09:05:48.000Z,99428
2018-04-11T09:07:48.000Z,99434
2018-04-11T09:09:48.000Z,99431
2018-04-11T09:11:48.000Z,99431
2018-04-11T09:13:48.000Z,99432
2018-04-11T09:15:48.000Z,99435
2018-04-11T09:16:48.000Z,99441
2018-04-11T09:18:48.000Z,99437
2018-04-11T09:19:48.000Z,99441
2018-04-11T09:21:33.000Z,99438
2018-04-11T09:22:48.000Z,99435
2018-04-11T09:24:48.000Z,99439
2018-04-11T09:26:48.000Z,99437
2018-04-11T09:28:33.000Z,99440
2018-04-11T09:29:48.000Z,99438
2018-04-11T09:31:48.000Z,99432
2018-04-11T09:33:48.000Z,99433
2018-04-11T09:34:48.000Z,99434
2018-04-11T09:36:48.000Z,99434
2018-04-11T09:38:48.000Z,99425
2018-04-11T09:40:48.000Z,99424
2018-04-11T09:42:48.000Z,99422
2018-04-11T09:46:53.000Z,99423
2018-04-11T09:48:39.000Z,99426
2018-04-11T09:50:39.000Z,99425
2018-04-11T09:52:39.000Z,99431
2018-04-11T09:54:39.000Z,99432
2018-04-11T09:56:24.000Z,99428
2018-04-11T09:57:39.000Z,99434
2018-04-11T09:58:39.000Z,99431
2018-04-11T10:00:39.000Z,99433
2018-04-11T10:02:24.000Z,99431
2018-04-11T10:03:39.000Z,99429
2018-04-11T10:04:39.000Z,99429
2018-04-11T10:06:39.000Z,99430
2018-04-11T10:08:39.000Z,99430
2018-04-11T10:10:39.000Z,99437
2018-04-11T10:11:39.000Z,99433
2018-04-11T10:13:39.000Z,99440
2018-04-11T10:15:39.000Z,99439
2018-04-11T10:17:39.000Z,99439
2018-04-11T10:19:39.000Z,99440
2018-04-11T10:21:23.000Z,99436
2018-04-11T10:22:39.000Z,99438
2018-04-11T10:24:39.000Z,99439
2018-04-11T10:26:39.000Z,99434
2018-04-11T10:28:39.000Z,99429
2018-04-11T10:29:39.000Z,99430
2018-04-11T10:31:39.000Z,99431
2018-04-11T10:33:39.000Z,99431
2018-04-11T10:35:40.000Z,99430
2018-04-11T10:37:40.000Z,99424
2018-04-11T10:39:40.000Z,99427
2018-04-11T10:41:40.000Z,99419
2018-04-11T10:43:25.000Z,99427
2018-04-11T10:44:40.000Z,99424
2018-04-11T10:45:40.000Z,99421
2018-04-11T10:47:25.000Z,99424
2018-04-11T10:48:25.000Z,99420
2018-04-11T10:49:40.000Z,99422
2018-04-11T10:51:40.000Z,99418
2018-04-11T10:53:25.000Z,99417
2018-04-11T10:54:40.000Z,99418
2018-04-11T10:55:40.000Z,99420
2018-04-11T10:57:25.000Z,99417
2018-04-11T10:58:40.000Z,99414
2018-04-11T11:00:40.000Z,99413
2018-04-11T11:02:40.000Z,99419
2018-04-11T11:04:40.000Z,99422
2018-04-11T11:05:40.000Z,99421
2018-04-11T11:07:40.000Z,99414
2018-04-11T11:09:40.000Z,99416
2018-04-11T11:10:40.000Z,99410
2018-04-11T11:11:40.000Z,99411
2018-04-11T11:12:40.000Z,99412
2018-04-11T11:14:40.000Z,99413
2018-04-11T11:15:40.000Z,99408
2018-04-11T11:16:40.000Z,99407
2018-04-11T11:18:40.000Z,99408
2018-04-11T11:19:40.000Z,99412
2018-04-11T11:20:40.000Z,99411
2018-04-11T11:22:40.000Z,99412
2018-04-11T11:24:40.000Z,99411
2018-04-11T11:25:40.000Z,99409
2018-04-11T11:27:40.000Z,99409
2018-04-11T11:29:40.000Z,99411
2018-04-11T11:31:40.000Z,99413
2018-04-11T11:32:40.000Z,99416
2018-04-11T11:33:40.000Z,99419
2018-04-11T11:34:40.000Z,99409
2018-04-11T11:36:40.000Z,99409
2018-04-11T11:38:39.000Z,99406
2018-04-11T11:40:39.000Z,99407
2018-04-11T11:41:39.000Z,99409
2018-04-11T11:43:39.000Z,99405
2018-04-11T11:45:39.000Z,99404
2018-04-11T11:46:39.000Z,99401
2018-04-11T11:47:39.000Z,99399
2018-04-11T11:49:39.000Z,99408
2018-04-11T11:51:39.000Z,99408
2018-04-11T11:52:39.000Z,99405
2018-04-11T11:54:39.000Z,99399
2018-04-11T11:55:39.000Z,99399
2018-04-11T11:57:39.000Z,99401
2018-04-11T11:58:39.000Z,99401
2018-04-11T12:00:24.000Z,99408
2018-04-11T12:01:39.000Z,99398
2018-04-11T12:02:39.000Z,99400
2018-04-11T12:04:39.000Z,99397
2018-04-11T12:06:39.000Z,99397
2018-04-11T12:08:39.000Z,99389
2018-04-11T12:10:24.000Z,99390
2018-04-11T12:11:39.000Z,99389
2018-04-11T12:13:39.000Z,99384
2018-04-11T12:14:39.000Z,99388
2018-04-11T12:16:39.000Z,99386
2018-04-11T12:17:39.000Z,99389
2018-04-11T12:19:24.000Z,99381
2018-04-11T12:20:39.000Z,99381
2018-04-11T12:22:24.000Z,99386
2018-04-11T12:23:39.000Z,99384
2018-04-11T12:25:39.000Z,99383
2018-04-11T12:26:39.000Z,99387
2018-04-11T12:28:24.000Z,99387
2018-04-11T12:29:39.000Z,99386
2018-04-11T12:30:39.000Z,99377
2018-04-11T12:32:39.000Z,99377
2018-04-11T12:33:39.000Z,99379
2018-04-11T12:35:39.000Z,99377
2018-04-11T12:36:39.000Z,99379
2018-04-11T12:38:39.000Z,99375
2018-04-11T12:39:39.000Z,99374
2018-04-11T12:41:39.000Z,99372
2018-04-11T12:43:39.000Z,99377
2018-04-11T12:45:39.000Z,99371
2018-04-11T12:47:39.000Z,99384
2018-04-11T12:49:39.000Z,99365
2018-04-11T12:51:24.000Z,99367
2018-04-11T12:53:24.000Z,99361
2018-04-11T12:54:39.000Z,99372
2018-04-11T12:56:24.000Z,99361
2018-04-11T12:57:39.000Z,99363
2018-04-11T12:58:39.000Z,99357
2018-04-11T13:00:24.000Z,99363
2018-04-11T13:01:39.000Z,99356
2018-04-11T13:03:39.000Z,99353
2018-04-11T13:04:39.000Z,99357
2018-04-11T13:06:39.000Z,99346
2018-04-11T13:08:39.000Z,99343
2018-04-11T13:09:39.000Z,99346
2018-04-11T13:11:39.000Z,99344
2018-04-11T13:12:39.000Z,99352
2018-04-11T13:14:39.000Z,99345
2018-04-11T13:15:39.000Z,99342
2018-04-11T13:16:39.000Z,99340
2018-04-11T13:18:39.000Z,99337
2018-04-11T13:19:39.000Z,99333
2018-04-11T13:21:24.000Z,99340
2018-04-11T13:22:39.000Z,99337
2018-04-11T13:23:39.000Z,99341
2018-04-11T13:24:39.000Z,99342
2018-04-11T13:26:24.000Z,99335
2018-04-11T13:27:39.000Z,99339
2018-04-11T13:29:39.000Z,99336
2018-04-11T13:31:39.000Z,99341
2018-04-11T13:33:24.000Z,99339
2018-04-11T13:34:39.000Z,99335
2018-04-11T13:36:24.000Z,99332
2018-04-11T13:37:24.000Z,99338
2018-04-11T13:38:39.000Z,99336
2018-04-11T13:39:39.000Z,99333
2018-04-11T13:41:24.000Z,99332
2018-04-11T13:42:39.000Z,99331
2018-04-11T13:44:39.000Z,99331
2018-04-11T13:45:40.000Z,99330
2018-04-11T13:47:40.000Z,99330
2018-04-11T13:49:40.000Z,99333
2018-04-11T13:51:25.000Z,99333
2018-04-11T13:52:40.000Z,99337
2018-04-11T13:54:40.000Z,99335
2018-04-11T13:56:40.000Z,99336
2018-04-11T13:58:40.000Z,99331
2018-04-11T14:00:40.000Z,99332
2018-04-11T14:01:40.000Z,99333
2018-04-11T14:03:40.000Z,99339
2018-04-11T14:04:40.000Z,99334
2018-04-11T14:06:40.000Z,99335
2018-04-11T14:08:25.000Z,99329
2018-04-11T14:09:40.000Z,99331
2018-04-11T14:10:40.000Z,99328
2018-04-11T14:11:40.000Z,99327
2018-04-11T14:13:40.000Z,99326
2018-04-11T14:15:40.000Z,99334
2018-04-11T14:17:40.000Z,99331
2018-04-11T14:19:40.000Z,99335
2018-04-11T14:20:40.000Z,99330
2018-04-11T14:22:25.000Z,99336
2018-04-11T14:23:40.000Z,99328
2018-04-11T14:25:40.000Z,99329
2018-04-11T14:26:40.000Z,99321
2018-04-11T14:28:40.000Z,99321
2018-04-11T14:29:40.000Z,99324
2018-04-11T14:31:40.000Z,99327
2018-04-11T14:32:40.000Z,99329
2018-04-11T14:34:25.000Z,99332
2018-04-11T14:35:40.000Z,99331
2018-04-11T14:36:40.000Z,99330
2018-04-11T14:38:40.000Z,99335
2018-04-11T14:40:25.000Z,99338
2018-04-11T14:41:40.000Z,99344
2018-04-11T14:43:25.000Z,99344
2018-04-11T14:44:40.000Z,99350
2018-04-11T14:46:40.000Z,99344
2018-04-11T14:47:40.000Z,99346
2018-04-11T14:49:40.000Z,99344
2018-04-11T14:51:39.000Z,99351
2018-04-11T14:53:24.000Z,99344
2018-04-11T14:54:39.000Z,99342
2018-04-11T14:55:40.000Z,99343
2018-04-11T14:57:24.000Z,99351
2018-04-11T14:58:39.000Z,99344
2018-04-11T15:00:39.000Z,99344
2018-04-11T15:02:24.000Z,99341
2018-04-11T15:03:39.000Z,99340
2018-04-11T15:05:39.000Z,99344
2018-04-11T15:07:40.000Z,99343
2018-04-11T15:09:39.000Z,99340
2018-04-11T15:11:39.000Z,99340
2018-04-11T15:13:39.000Z,99334
2018-04-11T15:15:39.000Z,99341
2018-04-11T15:16:39.000Z,99340
2018-04-11T15:18:24.000Z,99337
2018-04-11T15:19:39.000Z,99340
2018-04-11T15:21:39.000Z,99341
2018-04-11T15:23:39.000Z,99344
2018-04-11T15:24:39.000Z,99342
2018-04-11T15:26:39.000Z,99344
2018-04-11T15:27:39.000Z,99341
2018-04-11T15:29:39.000Z,99340
2018-04-11T15:30:39.000Z,99340
2018-04-11T15:32:39.000Z,99336
2018-04-11T15:34:39.000Z,99340
2018-04-11T15:36:39.000Z,99341
2018-04-11T15:38:39.000Z,99341
2018-04-11T15:40:39.000Z,99342
2018-04-11T15:42:39.000Z,99338
2018-04-11T15:44:39.000Z,99345
2018-04-11T15:46:39.000Z,99338
2018-04-11T15:48:24.000Z,99338
2018-04-11T15:49:40.000Z,99339
2018-04-11T15:51:39.000Z,99339
2018-04-11T15:53:39.000Z,99340
2018-04-11T15:55:39.000Z,99341
2018-04-11T15:57:39.000Z,99343
2018-04-11T15:59:39.000Z,99345
2018-04-11T16:01:39.000Z,99341
2018-04-11T16:03:39.000Z,99339
2018-04-11T16:05:24.000Z,99345
2018-04-11T16:06:39.000Z,99345
2018-04-11T16:08:39.000Z,99346
2018-04-11T16:10:24.000Z,99345
2018-04-11T16:11:39.000Z,99343
2018-04-11T16:12:39.000Z,99343
2018-04-11T16:13:39.000Z,99346
2018-04-11T16:15:39.000Z,99342
2018-04-11T16:17:39.000Z,99345
2018-04-11T16:18:39.000Z,99344
2018-04-11T16:19:39.000Z,99346
2018-04-11T16:21:39.000Z,99346
2018-04-11T16:22:39.000Z,99344
2018-04-11T16:24:39.000Z,99345
2018-04-11T16:26:24.000Z,99342
2018-04-11T16:28:39.000Z,99336
2018-04-11T16:30:39.000Z,99335
2018-04-11T16:32:39.000Z,99337
2018-04-11T16:34:39.000Z,99341
2018-04-11T16:36:39.000Z,99340
2018-04-11T16:38:24.000Z,99341
2018-04-11T16:39:39.000Z,99338
2018-04-11T16:41:39.000Z,99341
2018-04-11T16:43:39.000Z,99338
2018-04-11T16:45:24.000Z,99337
2018-04-11T16:46:39.000Z,99336
2018-04-11T16:48:39.000Z,99334
2018-04-11T16:50:39.000Z,99330
2018-04-11T16:51:39.000Z,99337
2018-04-11T16:53:24.000Z,99336
2018-04-11T16:54:39.000Z,99336
2018-04-11T16:56:40.000Z,99337
2018-04-11T16:57:40.000Z,99338
2018-04-11T16:59:40.000Z,99333
2018-04-11T17:01:40.000Z,99340
2018-04-11T17:03:40.000Z,99334
2018-04-11T17:05:40.000Z,99337
2018-04-11T17:07:40.000Z,99338
2018-04-11T17:09:25.000Z,99344
2018-04-11T17:10:25.000Z,99343
2018-04-11T17:11:40.000Z,99342
2018-04-11T17:13:40.000Z,99341
2018-04-11T17:15:40.000Z,99339
2018-04-11T17:16:40.000Z,99340
2018-04-11T17:18:40.000Z,99340
2018-04-11T17:20:25.000Z,99339
2018-04-11T17:21:40.000Z,99336
2018-04-11T17:23:40.000Z,99337
2018-04-11T17:25:40.000Z,99338
2018-04-11T17:26:40.000Z,99337
2018-04-11T17:28:40.000Z,99340
2018-04-11T17:30:40.000Z,99334
2018-04-11T17:32:40.000Z,99337
2018-04-11T17:34:40.000Z,99334
2018-04-11T17:36:40.000Z,99337
2018-04-11T17:38:40.000Z,99339
2018-04-11T17:39:40.000Z,99334
2018-04-11T17:41:40.000Z,99339
2018-04-11T17:42:40.000Z,99341
2018-04-11T17:44:40.000Z,99341
2018-04-11T17:45:40.000Z,99339
2018-04-11T17:47:40.000Z,99339
2018-04-11T17:49:40.000Z,99338
2018-04-11T17:51:40.000Z,99336
2018-04-11T17:53:40.000Z,99333
2018-04-11T17:55:40.000Z,99332
2018-04-11T17:56:40.000Z,99333
2018-04-11T17:57:40.000Z,99337
2018-04-11T17:59:40.000Z,99333
2018-04-11T18:01:40.000Z,99333
2018-04-11T18:03:40.000Z,99332
2018-04-11T18:05:40.000Z,99333
2018-04-11T18:07:40.000Z,99331
2018-04-11T18:09:40.000Z,99328
2018-04-11T18:10:40.000Z,99340
2018-04-11T18:12:40.000Z,99341
2018-04-11T18:14:40.000Z,99338
2018-04-11T18:16:40.000Z,99337
2018-04-11T18:18:40.000Z,99337
2018-04-11T18:20:40.000Z,99339
2018-04-11T18:22:40.000Z,99343
2018-04-11T18:24:40.000Z,99339
2018-04-11T18:26:40.000Z,99347
2018-04-11T18:28:40.000Z,99344
2018-04-11T18:29:40.000Z,99340
2018-04-11T18:31:10.000Z,99335
2018-04-11T18:32:40.000Z,99341
2018-04-11T18:33:40.000Z,99343
2018-04-11T18:35:40.000Z,99339
2018-04-11T18:37:40.000Z,99341
2018-04-11T18:38:40.000Z,99335
2018-04-11T18:40:40.000Z,99343
2018-04-11T18:42:25.000Z,99341
2018-04-11T18:43:40.000Z,99341
2018-04-11T18:44:40.000Z,99341
2018-04-11T18:46:25.000Z,99345
2018-04-11T18:47:40.000Z,99345
2018-04-11T18:48:40.000Z,99343
2018-04-11T18:50:25.000Z,99344
2018-04-11T18:51:40.000Z,99342
2018-04-11T18:52:40.000Z,99343
2018-04-11T18:54:40.000Z,99348
2018-04-11T18:56:40.000Z,99346
2018-04-11T18:58:40.000Z,99350
2018-04-11T18:59:40.000Z,99350
2018-04-11T19:01:40.000Z,99354
2018-04-11T19:03:40.000Z,99353
2018-04-11T19:04:39.000Z,99350
2018-04-11T19:06:39.000Z,99355
2018-04-11T19:07:39.000Z,99353
2018-04-11T19:08:39.000Z,99354
2018-04-11T19:10:39.000Z,99356
2018-04-11T19:11:39.000Z,99352
2018-04-11T19:13:39.000Z,99356
2018-04-11T19:15:24.000Z,99354
2018-04-11T19:16:39.000Z,99357
2018-04-11T19:18:24.000Z,99352
2018-04-11T19:19:39.000Z,99359
2018-04-11T19:21:39.000Z,99357
2018-04-11T19:22:39.000Z,99351
2018-04-11T19:24:24.000Z,99353
2018-04-11T19:25:39.000Z,99353
2018-04-11T19:26:39.000Z,99353
2018-04-11T19:28:24.000Z,99350
2018-04-11T19:29:39.000Z,99357
2018-04-11T19:31:39.000Z,99355
2018-04-11T19:33:39.000Z,99355
2018-04-11T19:35:39.000Z,99357
2018-04-11T19:36:39.000Z,99357
2018-04-11T19:38:39.000Z,99359
2018-04-11T19:40:39.000Z,99358
2018-04-11T19:42:39.000Z,99357
2018-04-11T19:44:39.000Z,99359
2018-04-11T19:46:39.000Z,99359
2018-04-11T19:48:39.000Z,99358
2018-04-11T19:50:24.000Z,99354
2018-04-11T19:51:39.000Z,99352
2018-04-11T19:52:39.000Z,99359
2018-04-11T19:54:39.000Z,99354
2018-04-11T19:56:39.000Z,99352
2018-04-11T19:58:39.000Z,99353
2018-04-11T19:59:39.000Z,99350
2018-04-11T20:01:24.000Z,99349
2018-04-11T20:02:39.000Z,99347
2018-04-11T20:04:39.000Z,99357
2018-04-11T20:06:39.000Z,99356
2018-04-11T20:07:40.000Z,99359
2018-04-11T20:08:40.000Z,99359
2018-04-11T20:10:40.000Z,99354
2018-04-11T20:12:40.000Z,99360
2018-04-11T20:14:40.000Z,99360
2018-04-11T20:16:40.000Z,99358
2018-04-11T20:17:40.000Z,99355
2018-04-11T20:18:40.000Z,99356
2018-04-11T20:19:40.000Z,99357
2018-04-11T20:21:40.000Z,99359
2018-04-11T20:23:40.000Z,99359
2018-04-11T20:25:40.000Z,99359
2018-04-11T20:27:25.000Z,99356
2018-04-11T20:28:40.000Z,99354
2018-04-11T20:29:40.000Z,99356
2018-04-11T20:31:40.000Z,99352
2018-04-11T20:32:40.000Z,99354
2018-04-11T20:34:40.000Z,99352
2018-04-11T20:36:40.000Z,99351
2018-04-11T20:38:40.000Z,99344
2018-04-11T20:39:40.000Z,99348
2018-04-11T20:41:25.000Z,99351
2018-04-11T20:42:40.000Z,99349
2018-04-11T20:44:40.000Z,99353
2018-04-11T20:46:40.000Z,99351
2018-04-11T20:48:40.000Z,99352
2018-04-11T20:50:25.000Z,99345
2018-04-11T20:51:40.000Z,99346
2018-04-11T20:53:40.000Z,99345
2018-04-11T20:54:40.000Z,99339
2018-04-11T20:56:40.000Z,99337
2018-04-11T20:58:40.000Z,99341
2018-04-11T21:00:40.000Z,99336
2018-04-11T21:01:40.000Z,99328
2018-04-11T21:03:40.000Z,99330
2018-04-11T21:05:40.000Z,99328
2018-04-11T21:06:40.000Z,99325
2018-04-11T21:08:40.000Z,99326
2018-04-11T21:09:40.000Z,99325
2018-04-11T21:11:40.000Z,99323
2018-04-11T21:13:40.000Z,99319
2018-04-11T21:15:40.000Z,99315
2018-04-11T21:16:40.000Z,99319
2018-04-11T21:18:40.000Z,99314
2018-04-11T21:20:40.000Z,99307